createdAt,value
2023-05-16T00:02:00.847Z,0.00
2023-05-16T00:03:00.814Z,0.00
2023-05-16T00:05:04.740Z,0.00
2023-05-16T00:06:04.731Z,0.00
2023-05-16T00:08:08.707Z,0.00
2023-05-16T00:09:08.693Z,0.00
2023-05-16T00:11:12.671Z,0.00
2023-05-16T00:12:12.663Z,0.00
2023-05-16T00:14:16.629Z,0.00
2023-05-16T00:15:16.614Z,0.00
2023-05-16T00:17:20.723Z,0.00
2023-05-16T00:18:20.576Z,0.00
2023-05-16T00:20:13.486Z,0.00
2023-05-16T00:21:13.477Z,0.00
2023-05-16T00:22:13.459Z,0.00
2023-05-16T00:23:13.456Z,0.00
2023-05-16T00:24:13.450Z,0.00
2023-05-16T00:25:13.443Z,0.00
2023-05-16T00:26:13.438Z,0.00
2023-05-16T00:27:13.430Z,0.00
2023-05-16T00:28:13.420Z,0.00
2023-05-16T00:29:13.418Z,0.00
2023-05-16T00:30:13.411Z,0.00
2023-05-16T00:31:13.407Z,0.00
2023-05-16T00:32:13.493Z,0.00
2023-05-16T00:33:13.463Z,0.00
2023-05-16T00:34:13.418Z,0.00
2023-05-16T00:35:13.378Z,0.00
2023-05-16T00:36:13.385Z,0.00
2023-05-16T00:37:13.366Z,0.00
2023-05-16T00:38:13.361Z,0.00
2023-05-16T00:39:13.357Z,0.00
2023-05-16T00:40:13.353Z,0.00
2023-05-16T00:41:13.341Z,0.00
2023-05-16T00:42:13.340Z,0.00
2023-05-16T00:43:13.330Z,0.00
2023-05-16T00:44:13.324Z,0.00
2023-05-16T00:45:13.322Z,0.00
2023-05-16T00:46:13.352Z,0.00
2023-05-16T00:47:13.304Z,0.00
2023-05-16T00:48:13.351Z,0.00
2023-05-16T00:49:13.289Z,0.00
2023-05-16T00:50:13.292Z,0.00
2023-05-16T00:51:13.280Z,0.00
2023-05-16T00:52:13.273Z,0.00
2023-05-16T00:53:13.264Z,0.00
2023-05-16T00:54:13.257Z,0.00
2023-05-16T00:55:13.256Z,0.00
2023-05-16T00:56:13.245Z,0.00
2023-05-16T00:57:13.242Z,0.00
2023-05-16T00:58:13.231Z,0.00
2023-05-16T00:59:13.226Z,0.00
2023-05-16T01:00:13.213Z,0.00
2023-05-16T01:01:13.235Z,0.00
2023-05-16T01:02:13.293Z,0.00
2023-05-16T01:03:13.303Z,0.00
2023-05-16T01:04:13.195Z,0.00
2023-05-16T01:05:13.188Z,0.00
2023-05-16T01:06:13.180Z,0.00
2023-05-16T01:07:13.202Z,0.00
2023-05-16T01:08:13.167Z,0.00
2023-05-16T01:09:13.158Z,0.00
2023-05-16T01:10:13.147Z,0.00
2023-05-16T01:11:13.165Z,0.00
2023-05-16T01:12:13.146Z,0.00
2023-05-16T01:13:13.135Z,0.00
2023-05-16T01:14:13.121Z,0.00
2023-05-16T01:15:13.122Z,0.00
2023-05-16T01:16:13.142Z,0.00
2023-05-16T01:17:13.134Z,0.00
2023-05-16T01:18:13.151Z,0.00
2023-05-16T01:19:13.180Z,0.00
2023-05-16T01:20:13.087Z,0.00
2023-05-16T01:21:13.073Z,0.00
2023-05-16T01:22:13.066Z,0.00
2023-05-16T01:23:13.060Z,0.00
2023-05-16T01:24:13.112Z,0.00
2023-05-16T01:25:13.044Z,0.00
2023-05-16T01:26:13.037Z,0.00
2023-05-16T01:27:13.032Z,0.00
2023-05-16T01:28:13.025Z,0.00
2023-05-16T01:29:13.017Z,0.00
2023-05-16T01:30:13.009Z,0.00
2023-05-16T01:33:04.208Z,0.00
2023-05-16T01:33:55.729Z,0.00
2023-05-16T01:35:59.665Z,0.00
2023-05-16T01:36:59.649Z,0.00
2023-05-16T01:39:03.655Z,0.00
2023-05-16T01:40:03.626Z,0.00
2023-05-16T01:42:07.614Z,0.00
2023-05-16T01:43:07.592Z,0.00
2023-05-16T01:45:11.571Z,0.00
2023-05-16T01:46:11.613Z,0.00
2023-05-16T01:48:15.569Z,0.00
2023-05-16T01:49:15.512Z,0.00
2023-05-16T01:51:19.503Z,0.00
2023-05-16T01:52:19.486Z,0.00
2023-05-16T01:54:23.463Z,0.00
2023-05-16T01:55:23.441Z,0.00
2023-05-16T01:57:27.451Z,0.00
2023-05-16T01:58:27.426Z,0.00
2023-05-16T02:00:20.316Z,0.00
2023-05-16T02:01:20.320Z,0.00
2023-05-16T02:02:20.363Z,0.00
2023-05-16T02:03:20.374Z,0.00
2023-05-16T02:04:20.326Z,0.00
2023-05-16T02:05:20.272Z,0.00
2023-05-16T02:06:20.267Z,0.00
2023-05-16T02:07:20.318Z,0.00
2023-05-16T02:08:20.252Z,0.00
2023-05-16T02:09:20.250Z,0.00
2023-05-16T02:10:20.285Z,0.00
2023-05-16T02:11:20.238Z,0.00
2023-05-16T02:12:20.223Z,0.00
2023-05-16T02:13:20.217Z,0.00
2023-05-16T02:14:20.205Z,0.00
2023-05-16T02:15:20.201Z,0.00
2023-05-16T02:16:20.211Z,0.00
2023-05-16T02:17:20.255Z,0.00
2023-05-16T02:18:20.199Z,0.00
2023-05-16T02:19:20.207Z,0.00
2023-05-16T02:20:20.164Z,0.00
2023-05-16T02:21:20.161Z,0.00
2023-05-16T02:22:20.151Z,0.00
2023-05-16T02:23:20.143Z,0.00
2023-05-16T02:24:20.136Z,0.00
2023-05-16T02:25:20.129Z,0.00
2023-05-16T02:26:20.118Z,0.00
2023-05-16T02:27:20.108Z,0.00
2023-05-16T02:28:20.110Z,0.00
2023-05-16T02:29:20.102Z,0.00
2023-05-16T02:30:20.102Z,0.00
2023-05-16T02:31:20.156Z,0.00
2023-05-16T02:32:20.143Z,0.00
2023-05-16T02:33:20.070Z,0.00
2023-05-16T02:34:20.061Z,0.00
2023-05-16T02:35:20.055Z,0.00
2023-05-16T02:36:20.045Z,0.00
2023-05-16T02:37:20.056Z,0.00
2023-05-16T02:38:20.036Z,0.00
2023-05-16T02:39:20.022Z,4.00
2023-05-16T02:40:20.020Z,4.00
2023-05-16T02:41:20.007Z,4.00
2023-05-16T02:42:20.002Z,0.00
2023-05-16T02:43:20.000Z,4.00
2023-05-16T02:44:19.991Z,4.00
2023-05-16T02:45:19.982Z,4.00
2023-05-16T02:46:20.021Z,4.00
2023-05-16T02:47:20.064Z,4.00
2023-05-16T02:48:19.960Z,8.00
2023-05-16T02:49:19.957Z,8.00
2023-05-16T02:50:19.942Z,4.00
2023-05-16T02:51:19.933Z,8.00
2023-05-16T02:52:19.923Z,8.00
2023-05-16T02:53:19.917Z,12.00
2023-05-16T02:54:19.934Z,8.00
2023-05-16T02:55:22.424Z,12.00
2023-05-16T02:56:19.899Z,12.00
2023-05-16T02:57:19.923Z,12.00
2023-05-16T02:58:19.887Z,16.00
2023-05-16T02:59:19.873Z,16.00
2023-05-16T03:00:19.939Z,24.00
2023-05-16T03:01:19.954Z,24.00
2023-05-16T03:02:19.889Z,24.00
2023-05-16T03:03:19.937Z,28.00
2023-05-16T03:04:19.835Z,32.00
2023-05-16T03:05:19.830Z,36.00
2023-05-16T03:06:19.816Z,36.00
2023-05-16T03:07:19.816Z,40.00
2023-05-16T03:08:19.801Z,44.00
2023-05-16T03:09:19.799Z,44.00
2023-05-16T03:10:19.788Z,52.00
2023-05-16T03:11:19.781Z,56.00
2023-05-16T03:12:19.769Z,48.00
2023-05-16T03:13:19.766Z,44.00
2023-05-16T03:14:19.759Z,48.00
2023-05-16T03:15:19.749Z,52.00
2023-05-16T03:16:19.820Z,56.00
2023-05-16T03:17:19.778Z,52.00
2023-05-16T03:18:19.729Z,52.00
2023-05-16T03:19:19.909Z,60.00
2023-05-16T03:20:19.752Z,64.00
2023-05-16T03:21:19.704Z,60.00
2023-05-16T03:22:19.713Z,64.00
2023-05-16T03:23:19.700Z,68.00
2023-05-16T03:24:19.727Z,72.00
2023-05-16T03:25:19.670Z,76.00
2023-05-16T03:26:19.666Z,72.00
2023-05-16T03:27:19.662Z,80.00
2023-05-16T03:28:19.659Z,84.00
2023-05-16T03:29:19.647Z,88.00
2023-05-16T03:30:19.642Z,96.00
2023-05-16T03:31:19.670Z,100.00
2023-05-16T03:32:19.695Z,104.00
2023-05-16T03:33:19.617Z,124.00
2023-05-16T03:34:19.604Z,132.00
2023-05-16T03:35:19.602Z,136.00
2023-05-16T03:36:19.589Z,132.00
2023-05-16T03:37:19.603Z,156.00
2023-05-16T03:38:19.575Z,160.00
2023-05-16T03:39:19.573Z,152.00
2023-05-16T03:40:19.564Z,176.00
2023-05-16T03:41:19.555Z,172.00
2023-05-16T03:42:19.547Z,188.00
2023-05-16T03:43:19.546Z,192.00
2023-05-16T03:44:19.531Z,172.00
2023-05-16T03:45:19.525Z,176.00
2023-05-16T03:46:19.588Z,164.00
2023-05-16T03:47:19.507Z,188.00
2023-05-16T03:48:19.524Z,184.00
2023-05-16T03:49:19.499Z,188.00
2023-05-16T03:50:19.492Z,184.00
2023-05-16T03:51:19.477Z,204.00
2023-05-16T03:52:19.473Z,216.00
2023-05-16T03:53:19.472Z,220.00
2023-05-16T03:54:19.453Z,248.00
2023-05-16T03:55:19.444Z,252.00
2023-05-16T03:56:19.443Z,260.00
2023-05-16T03:57:19.433Z,272.00
2023-05-16T03:58:19.421Z,264.00
2023-05-16T03:59:19.417Z,276.00
2023-05-16T04:00:19.406Z,288.00
2023-05-16T04:01:19.437Z,268.00
2023-05-16T04:02:19.440Z,268.00
2023-05-16T04:03:19.441Z,304.00
2023-05-16T04:04:19.373Z,300.00
2023-05-16T04:05:19.456Z,332.00
2023-05-16T04:06:19.462Z,340.00
2023-05-16T04:07:20.332Z,372.00
2023-05-16T04:08:19.342Z,372.00
2023-05-16T04:09:19.344Z,384.00
2023-05-16T04:10:19.354Z,372.00
2023-05-16T04:11:19.342Z,416.00
2023-05-16T04:12:19.314Z,436.00
2023-05-16T04:13:19.366Z,472.00
2023-05-16T04:14:19.299Z,444.00
2023-05-16T04:15:19.295Z,468.00
2023-05-16T04:16:19.321Z,456.00
2023-05-16T04:17:19.272Z,476.00
2023-05-16T04:18:19.268Z,464.00
2023-05-16T04:19:19.485Z,548.00
2023-05-16T04:20:19.253Z,552.00
2023-05-16T04:21:19.246Z,488.00
2023-05-16T04:22:19.237Z,608.00
2023-05-16T04:23:19.234Z,576.00
2023-05-16T04:24:19.222Z,552.00
2023-05-16T04:25:19.216Z,544.00
2023-05-16T04:26:19.206Z,624.00
2023-05-16T04:27:19.198Z,584.00
2023-05-16T04:28:19.193Z,588.00
2023-05-16T04:29:19.187Z,584.00
2023-05-16T04:30:19.172Z,592.00
2023-05-16T04:31:19.220Z,604.00
2023-05-16T04:32:19.166Z,576.00
2023-05-16T04:33:19.154Z,596.00
2023-05-16T04:34:19.145Z,684.00
2023-05-16T04:35:19.138Z,700.00
2023-05-16T04:36:19.130Z,580.00
2023-05-16T04:37:19.124Z,616.00
2023-05-16T04:38:19.119Z,592.00
2023-05-16T04:39:19.112Z,560.00
2023-05-16T04:40:19.136Z,596.00
2023-05-16T04:41:19.090Z,588.00
2023-05-16T04:42:19.100Z,576.00
2023-05-16T04:43:19.074Z,596.00
2023-05-16T04:44:19.073Z,536.00
2023-05-16T04:45:19.107Z,524.00
2023-05-16T04:46:19.108Z,556.00
2023-05-16T04:47:19.074Z,588.00
2023-05-16T04:48:19.044Z,564.00
2023-05-16T04:49:19.041Z,572.00
2023-05-16T04:50:19.050Z,608.00
2023-05-16T04:51:19.041Z,584.00
2023-05-16T04:52:19.030Z,608.00
2023-05-16T04:53:18.999Z,536.00
2023-05-16T04:54:18.987Z,544.00
2023-05-16T04:55:18.982Z,532.00
2023-05-16T04:56:18.971Z,536.00
2023-05-16T04:57:18.974Z,548.00
2023-05-16T04:58:18.965Z,584.00
2023-05-16T04:59:18.952Z,584.00
2023-05-16T05:00:18.946Z,600.00
2023-05-16T05:01:18.998Z,608.00
2023-05-16T05:02:18.929Z,576.00
2023-05-16T05:03:19.011Z,660.00
2023-05-16T05:04:18.910Z,724.00
2023-05-16T05:05:18.956Z,832.00
2023-05-16T05:06:18.896Z,868.00
2023-05-16T05:07:18.894Z,840.00
2023-05-16T05:08:18.888Z,816.00
2023-05-16T05:09:18.872Z,804.00
2023-05-16T05:10:18.861Z,820.00
2023-05-16T05:11:18.854Z,840.00
2023-05-16T05:12:18.855Z,860.00
2023-05-16T05:13:18.839Z,892.00
2023-05-16T05:14:18.828Z,972.00
2023-05-16T05:15:18.821Z,1144.00
2023-05-16T05:16:18.810Z,1104.00
2023-05-16T05:17:18.837Z,1128.00
2023-05-16T05:18:18.846Z,1100.00
2023-05-16T05:19:18.861Z,1060.00
2023-05-16T05:20:18.787Z,1092.00
2023-05-16T05:21:18.795Z,1180.00
2023-05-16T05:22:18.769Z,1140.00
2023-05-16T05:23:18.758Z,1168.00
2023-05-16T05:24:18.750Z,1172.00
2023-05-16T05:25:18.742Z,1156.00
2023-05-16T05:26:18.729Z,1156.00
2023-05-16T05:27:18.738Z,1148.00
2023-05-16T05:28:18.727Z,1252.00
2023-05-16T05:29:18.717Z,1352.00
2023-05-16T05:30:18.705Z,1408.00
2023-05-16T05:31:18.706Z,1536.00
2023-05-16T05:32:18.684Z,1684.00
2023-05-16T05:33:18.819Z,1780.00
2023-05-16T05:34:18.666Z,1828.00
2023-05-16T05:35:18.659Z,1732.00
2023-05-16T05:36:18.653Z,1784.00
2023-05-16T05:37:18.640Z,1700.00
2023-05-16T05:38:18.633Z,1800.00
2023-05-16T05:39:18.628Z,1852.00
2023-05-16T05:40:18.719Z,1824.00
2023-05-16T05:41:18.610Z,1824.00
2023-05-16T05:42:18.597Z,1816.00
2023-05-16T05:43:18.592Z,1832.00
2023-05-16T05:44:18.592Z,1844.00
2023-05-16T05:45:18.575Z,2000.00
2023-05-16T05:46:18.622Z,2108.00
2023-05-16T05:47:18.557Z,2100.00
2023-05-16T05:48:18.574Z,2068.00
2023-05-16T05:49:18.545Z,2000.00
2023-05-16T05:50:18.532Z,1896.00
2023-05-16T05:51:18.560Z,1988.00
2023-05-16T05:52:18.522Z,1972.00
2023-05-16T05:53:18.507Z,2124.00
2023-05-16T05:54:18.502Z,2120.00
2023-05-16T05:55:18.490Z,2372.00
2023-05-16T05:56:18.492Z,2668.00
2023-05-16T05:57:18.480Z,2448.00
2023-05-16T05:58:18.494Z,2452.00
2023-05-16T05:59:18.461Z,2600.00
2023-05-16T06:00:18.460Z,2652.00
2023-05-16T06:01:18.458Z,2724.00
2023-05-16T06:02:18.476Z,2728.00
2023-05-16T06:03:18.593Z,2836.00
2023-05-16T06:04:18.422Z,2844.00
2023-05-16T06:05:18.459Z,2928.00
2023-05-16T06:06:18.412Z,2704.00
2023-05-16T06:07:18.408Z,2524.00
2023-05-16T06:08:18.387Z,2448.00
2023-05-16T06:09:18.383Z,2352.00
2023-05-16T06:10:18.390Z,2440.00
2023-05-16T06:11:18.368Z,2480.00
2023-05-16T06:12:18.363Z,2364.00
2023-05-16T06:13:18.370Z,2420.00
2023-05-16T06:14:18.349Z,2156.00
2023-05-16T06:15:18.343Z,2036.00
2023-05-16T06:16:18.359Z,2064.00
2023-05-16T06:17:18.433Z,2120.00
2023-05-16T06:18:18.395Z,2096.00
2023-05-16T06:19:18.440Z,2180.00
2023-05-16T06:20:18.302Z,2072.00
2023-05-16T06:21:18.285Z,2220.00
2023-05-16T06:22:18.277Z,2240.00
2023-05-16T06:23:19.303Z,2164.00
2023-05-16T06:24:18.278Z,2372.00
2023-05-16T06:25:18.259Z,2444.00
2023-05-16T06:26:18.252Z,2436.00
2023-05-16T06:27:18.237Z,2408.00
2023-05-16T06:28:18.236Z,2436.00
2023-05-16T06:29:18.224Z,2496.00
2023-05-16T06:30:18.218Z,2744.00
2023-05-16T06:31:18.237Z,2744.00
2023-05-16T06:32:18.201Z,2844.00
2023-05-16T06:33:18.192Z,3068.00
2023-05-16T06:34:18.184Z,2928.00
2023-05-16T06:35:18.180Z,3072.00
2023-05-16T06:36:18.172Z,2900.00
2023-05-16T06:37:18.169Z,3076.00
2023-05-16T06:38:18.850Z,3000.00
2023-05-16T06:39:18.148Z,3008.00
2023-05-16T06:40:18.140Z,3140.00
2023-05-16T06:41:18.133Z,3148.00
2023-05-16T06:42:18.120Z,3324.00
2023-05-16T06:43:18.127Z,3184.00
2023-05-16T06:44:18.108Z,2952.00
2023-05-16T06:45:18.102Z,2860.00
2023-05-16T06:46:18.147Z,2916.00
2023-05-16T06:47:18.082Z,2820.00
2023-05-16T06:48:18.126Z,2884.00
2023-05-16T06:49:18.073Z,2884.00
2023-05-16T06:50:18.058Z,2876.00
2023-05-16T06:51:18.143Z,2824.00
2023-05-16T06:52:18.050Z,2616.00
2023-05-16T06:53:18.038Z,2824.00
2023-05-16T06:54:18.033Z,2796.00
2023-05-16T06:55:18.026Z,2712.00
2023-05-16T06:56:18.011Z,2636.00
2023-05-16T06:57:18.007Z,2844.00
2023-05-16T06:58:17.996Z,2800.00
2023-05-16T06:59:17.993Z,2812.00
2023-05-16T07:00:17.976Z,2932.00
2023-05-16T07:01:18.034Z,3252.00
2023-05-16T07:02:18.024Z,3488.00
2023-05-16T07:03:18.030Z,3500.00
2023-05-16T07:04:17.946Z,3660.00
2023-05-16T07:05:17.952Z,3896.00
2023-05-16T07:06:17.934Z,3980.00
2023-05-16T07:07:17.945Z,4292.00
2023-05-16T07:08:17.917Z,3940.00
2023-05-16T07:09:17.908Z,3940.00
2023-05-16T07:10:17.902Z,3892.00
2023-05-16T07:11:17.907Z,3576.00
2023-05-16T07:12:17.886Z,3744.00
2023-05-16T07:13:17.879Z,3628.00
2023-05-16T07:14:17.879Z,4296.00
2023-05-16T07:15:17.864Z,5028.00
2023-05-16T07:16:17.884Z,5744.00
2023-05-16T07:17:17.849Z,6420.00
2023-05-16T07:18:18.433Z,6572.00
2023-05-16T07:19:17.945Z,7476.00
2023-05-16T07:20:17.837Z,6864.00
2023-05-16T07:21:17.827Z,6680.00
2023-05-16T07:22:17.814Z,7544.00
2023-05-16T07:23:17.827Z,8188.00
2023-05-16T07:24:17.796Z,10824.00
2023-05-16T07:25:17.796Z,12104.00
2023-05-16T07:26:17.785Z,9600.00
2023-05-16T07:27:17.771Z,9416.00
2023-05-16T07:28:17.769Z,10204.00
2023-05-16T07:29:17.759Z,11716.00
2023-05-16T07:30:17.756Z,8184.00
2023-05-16T07:31:17.809Z,7744.00
2023-05-16T07:32:17.747Z,8124.00
2023-05-16T07:33:17.729Z,7432.00
2023-05-16T07:34:17.724Z,7208.00
2023-05-16T07:35:17.706Z,6164.00
2023-05-16T07:36:18.014Z,5716.00
2023-05-16T07:37:17.700Z,5120.00
2023-05-16T07:38:17.693Z,5052.00
2023-05-16T07:39:17.683Z,4856.00
2023-05-16T07:40:17.679Z,4916.00
2023-05-16T07:41:17.695Z,4860.00
2023-05-16T07:42:17.657Z,4956.00
2023-05-16T07:43:17.654Z,4828.00
2023-05-16T07:44:17.646Z,4876.00
2023-05-16T07:45:17.641Z,5056.00
2023-05-16T07:46:17.764Z,5492.00
2023-05-16T07:47:17.620Z,5444.00
2023-05-16T07:48:17.615Z,5620.00
2023-05-16T07:49:17.614Z,5788.00
2023-05-16T07:50:17.600Z,5580.00
2023-05-16T07:51:17.615Z,5336.00
2023-05-16T07:52:17.587Z,5400.00
2023-05-16T07:53:17.583Z,5640.00
2023-05-16T07:54:17.573Z,5500.00
2023-05-16T07:55:17.629Z,5336.00
2023-05-16T07:56:17.555Z,5136.00
2023-05-16T07:57:17.549Z,5220.00
2023-05-16T07:58:17.541Z,5416.00
2023-05-16T07:59:17.556Z,5120.00
2023-05-16T08:00:17.556Z,4672.00
2023-05-16T08:01:17.514Z,4372.00
2023-05-16T08:02:17.543Z,4272.00
2023-05-16T08:03:17.584Z,4412.00
2023-05-16T08:04:17.502Z,4476.00
2023-05-16T08:05:17.520Z,4488.00
2023-05-16T08:06:17.550Z,4496.00
2023-05-16T08:07:17.477Z,4428.00
2023-05-16T08:08:17.473Z,4492.00
2023-05-16T08:09:17.459Z,4432.00
2023-05-16T08:10:17.453Z,4396.00
2023-05-16T08:11:17.467Z,4392.00
2023-05-16T08:12:17.438Z,4464.00
2023-05-16T08:13:17.439Z,4556.00
2023-05-16T08:14:17.420Z,4688.00
2023-05-16T08:15:17.423Z,4760.00
2023-05-16T08:16:17.453Z,4624.00
2023-05-16T08:17:17.408Z,4904.00
2023-05-16T08:18:18.795Z,5112.00
2023-05-16T08:19:17.442Z,5380.00
2023-05-16T08:20:17.432Z,5500.00
2023-05-16T08:21:17.372Z,5872.00
2023-05-16T08:22:17.364Z,5648.00
2023-05-16T08:23:17.365Z,5460.00
2023-05-16T08:24:18.317Z,5136.00
2023-05-16T08:25:17.344Z,4948.00
2023-05-16T08:26:17.337Z,5052.00
2023-05-16T08:27:17.327Z,4584.00
2023-05-16T08:28:17.360Z,4420.00
2023-05-16T08:29:17.329Z,4308.00
2023-05-16T08:30:17.337Z,4332.00
2023-05-16T08:31:17.353Z,4464.00
2023-05-16T08:32:17.297Z,4700.00
2023-05-16T08:33:17.324Z,4480.00
2023-05-16T08:34:17.277Z,4300.00
2023-05-16T08:35:17.268Z,4420.00
2023-05-16T08:36:17.264Z,4232.00
2023-05-16T08:37:17.479Z,4236.00
2023-05-16T08:38:17.255Z,4296.00
2023-05-16T08:39:17.241Z,4304.00
2023-05-16T08:40:17.233Z,4484.00
2023-05-16T08:41:17.227Z,4772.00
2023-05-16T08:42:17.221Z,4644.00
2023-05-16T08:43:17.234Z,4804.00
2023-05-16T08:44:17.205Z,4720.00
2023-05-16T08:45:17.201Z,4632.00
2023-05-16T08:46:17.217Z,4644.00
2023-05-16T08:47:17.227Z,4312.00
2023-05-16T08:48:17.290Z,4204.00
2023-05-16T08:49:17.167Z,4036.00
2023-05-16T08:50:17.165Z,3956.00
2023-05-16T08:51:17.159Z,3860.00
2023-05-16T08:52:17.151Z,3980.00
2023-05-16T08:53:17.134Z,4360.00
2023-05-16T08:54:17.140Z,4520.00
2023-05-16T08:55:17.135Z,4508.00
2023-05-16T08:56:17.134Z,4600.00
2023-05-16T08:57:17.118Z,4600.00
2023-05-16T08:58:17.111Z,4484.00
2023-05-16T08:59:17.230Z,4164.00
2023-05-16T09:00:17.120Z,4212.00
2023-05-16T09:01:17.120Z,4276.00
2023-05-16T09:02:17.082Z,4404.00
2023-05-16T09:03:17.194Z,4632.00
2023-05-16T09:04:17.125Z,5000.00
2023-05-16T09:05:17.066Z,4712.00
2023-05-16T09:06:17.052Z,4464.00
2023-05-16T09:07:17.046Z,4496.00
2023-05-16T09:08:17.042Z,4540.00
2023-05-16T09:09:17.031Z,4552.00
2023-05-16T09:10:17.045Z,4532.00
2023-05-16T09:11:17.019Z,4636.00
2023-05-16T09:12:17.013Z,4912.00
2023-05-16T09:13:17.001Z,4756.00
2023-05-16T09:14:16.996Z,4496.00
2023-05-16T09:15:17.005Z,4500.00
2023-05-16T09:16:17.076Z,4512.00
2023-05-16T09:17:20.470Z,4628.00
2023-05-16T09:18:17.018Z,4404.00
2023-05-16T09:19:17.003Z,4312.00
2023-05-16T09:20:16.968Z,4020.00
2023-05-16T09:21:16.943Z,3976.00
2023-05-16T09:22:16.939Z,4236.00
2023-05-16T09:23:16.930Z,4732.00
2023-05-16T09:24:16.923Z,4608.00
2023-05-16T09:25:28.316Z,5212.00
2023-05-16T09:26:16.907Z,6624.00
2023-05-16T09:27:16.905Z,7536.00
2023-05-16T09:28:16.897Z,8664.00
2023-05-16T09:29:16.888Z,8268.00
2023-05-16T09:30:16.884Z,7148.00
2023-05-16T09:31:16.911Z,5976.00
2023-05-16T09:32:16.868Z,5396.00
2023-05-16T09:33:16.892Z,5176.00
2023-05-16T09:34:16.854Z,5264.00
2023-05-16T09:35:27.239Z,5544.00
2023-05-16T09:36:16.845Z,5752.00
2023-05-16T09:37:16.836Z,5724.00
2023-05-16T09:38:17.102Z,6072.00
2023-05-16T09:39:16.818Z,7128.00
2023-05-16T09:40:16.835Z,8712.00
2023-05-16T09:41:16.813Z,9212.00
2023-05-16T09:42:16.796Z,9056.00
2023-05-16T09:43:17.316Z,7868.00
2023-05-16T09:44:16.984Z,7280.00
2023-05-16T09:45:16.777Z,8292.00
2023-05-16T09:46:16.796Z,8540.00
2023-05-16T09:47:16.797Z,7956.00
2023-05-16T09:48:16.808Z,7844.00
2023-05-16T09:49:16.784Z,7600.00
2023-05-16T09:50:17.441Z,7148.00
2023-05-16T09:51:16.944Z,7120.00
2023-05-16T09:52:16.729Z,6540.00
2023-05-16T09:53:16.744Z,5812.00
2023-05-16T09:54:16.713Z,5352.00
2023-05-16T09:55:16.710Z,5296.00
2023-05-16T09:56:16.699Z,5564.00
2023-05-16T09:57:16.693Z,5008.00
2023-05-16T09:58:16.687Z,4584.00
2023-05-16T09:59:16.684Z,5004.00
2023-05-16T10:00:16.670Z,4996.00
2023-05-16T10:01:16.671Z,4936.00
2023-05-16T10:02:16.839Z,4940.00
2023-05-16T10:03:16.876Z,5072.00
2023-05-16T10:04:16.816Z,5524.00
2023-05-16T10:05:16.635Z,5844.00
2023-05-16T10:06:16.677Z,6216.00
2023-05-16T10:07:16.651Z,6332.00
2023-05-16T10:08:16.615Z,6700.00
2023-05-16T10:09:16.610Z,6348.00
2023-05-16T10:10:16.627Z,5968.00
2023-05-16T10:11:16.596Z,6304.00
2023-05-16T10:12:16.597Z,6748.00
2023-05-16T10:13:16.609Z,6088.00
2023-05-16T10:14:16.574Z,5900.00
2023-05-16T10:15:16.568Z,5568.00
2023-05-16T10:16:16.604Z,5276.00
2023-05-16T10:17:16.593Z,5212.00
2023-05-16T10:18:16.623Z,5456.00
2023-05-16T10:19:16.602Z,5628.00
2023-05-16T10:20:16.705Z,5860.00
2023-05-16T10:21:16.554Z,5500.00
2023-05-16T10:22:16.529Z,5672.00
2023-05-16T10:23:16.515Z,5552.00
2023-05-16T10:24:16.509Z,4788.00
2023-05-16T10:25:16.500Z,4804.00
2023-05-16T10:26:16.497Z,4384.00
2023-05-16T10:27:17.918Z,4256.00
2023-05-16T10:28:16.541Z,4100.00
2023-05-16T10:29:16.483Z,3896.00
2023-05-16T10:30:16.513Z,3792.00
2023-05-16T10:31:16.494Z,3648.00
2023-05-16T10:32:16.577Z,3608.00
2023-05-16T10:33:16.542Z,3592.00
2023-05-16T10:34:16.428Z,3552.00
2023-05-16T10:35:16.448Z,3560.00
2023-05-16T10:36:16.416Z,3720.00
2023-05-16T10:37:16.407Z,3896.00
2023-05-16T10:38:16.402Z,4028.00
2023-05-16T10:39:16.395Z,4264.00
2023-05-16T10:40:16.500Z,4480.00
2023-05-16T10:41:16.392Z,4584.00
2023-05-16T10:42:16.381Z,4624.00
2023-05-16T10:43:16.364Z,4656.00
2023-05-16T10:44:16.352Z,4844.00
2023-05-16T10:45:16.349Z,4812.00
2023-05-16T10:46:16.416Z,4744.00
2023-05-16T10:47:16.337Z,4824.00
2023-05-16T10:48:16.378Z,4728.00
2023-05-16T10:49:16.322Z,4960.00
2023-05-16T10:50:16.351Z,5376.00
2023-05-16T10:51:16.358Z,6852.00
2023-05-16T10:52:16.296Z,8116.00
2023-05-16T10:53:16.317Z,8956.00
2023-05-16T10:54:16.283Z,9588.00
2023-05-16T10:55:16.289Z,10620.00
2023-05-16T10:56:16.267Z,10804.00
2023-05-16T10:57:16.260Z,10968.00
2023-05-16T10:58:16.264Z,11164.00
2023-05-16T10:59:16.247Z,11224.00
2023-05-16T11:00:16.321Z,11024.00
2023-05-16T11:01:16.362Z,11132.00
2023-05-16T11:02:16.298Z,11100.00
2023-05-16T11:03:16.297Z,11240.00
2023-05-16T11:04:16.210Z,11608.00
2023-05-16T11:05:16.205Z,11896.00
2023-05-16T11:06:17.365Z,11628.00
2023-05-16T11:07:16.204Z,11260.00
2023-05-16T11:08:16.194Z,11208.00
2023-05-16T11:09:16.204Z,10524.00
2023-05-16T11:10:16.174Z,11596.00
2023-05-16T11:11:16.164Z,12172.00
2023-05-16T11:12:16.188Z,12324.00
2023-05-16T11:13:16.155Z,11800.00
2023-05-16T11:14:16.149Z,11884.00
2023-05-16T11:15:16.140Z,11616.00
2023-05-16T11:16:16.171Z,11724.00
2023-05-16T11:17:16.376Z,12036.00
2023-05-16T11:18:16.190Z,11404.00
2023-05-16T11:19:16.231Z,9004.00
2023-05-16T11:20:16.117Z,7796.00
2023-05-16T11:21:16.100Z,7312.00
2023-05-16T11:22:16.096Z,6728.00
2023-05-16T11:23:16.142Z,6416.00
2023-05-16T11:24:16.090Z,6308.00
2023-05-16T11:25:16.082Z,6160.00
2023-05-16T11:26:16.071Z,5500.00
2023-05-16T11:27:16.068Z,5236.00
2023-05-16T11:28:16.060Z,5404.00
2023-05-16T11:29:16.053Z,5472.00
2023-05-16T11:30:16.046Z,5512.00
2023-05-16T11:31:16.098Z,5524.00
2023-05-16T11:32:16.080Z,5436.00
2023-05-16T11:33:16.164Z,5244.00
2023-05-16T11:34:16.021Z,5076.00
2023-05-16T11:35:16.028Z,4960.00
2023-05-16T11:36:16.690Z,4924.00
2023-05-16T11:37:16.005Z,5036.00
2023-05-16T11:38:16.000Z,4960.00
2023-05-16T11:39:16.025Z,4764.00
2023-05-16T11:40:15.987Z,4628.00
2023-05-16T11:41:15.979Z,4976.00
2023-05-16T11:42:16.942Z,5724.00
2023-05-16T11:43:15.962Z,6940.00
2023-05-16T11:44:15.959Z,7368.00
2023-05-16T11:45:15.959Z,7560.00
2023-05-16T11:46:15.973Z,7812.00
2023-05-16T11:47:15.947Z,7352.00
2023-05-16T11:48:24.871Z,6908.00
2023-05-16T11:49:15.932Z,7100.00
2023-05-16T11:50:15.931Z,7188.00
2023-05-16T11:51:15.913Z,8144.00
2023-05-16T11:52:15.910Z,9220.00
2023-05-16T11:53:15.896Z,9068.00
2023-05-16T11:54:15.895Z,8244.00
2023-05-16T11:55:21.868Z,6872.00
2023-05-16T11:56:15.878Z,6320.00
2023-05-16T11:57:15.874Z,6572.00
2023-05-16T11:58:15.868Z,5468.00
2023-05-16T11:59:15.866Z,5016.00
2023-05-16T12:00:15.861Z,5604.00
2023-05-16T12:01:15.848Z,7140.00
2023-05-16T12:02:15.843Z,5468.00
2023-05-16T12:03:15.984Z,4676.00
2023-05-16T12:04:16.092Z,4540.00
2023-05-16T12:05:15.852Z,4636.00
2023-05-16T12:06:15.817Z,4900.00
2023-05-16T12:07:15.813Z,5396.00
2023-05-16T12:08:15.803Z,5920.00
2023-05-16T12:09:18.230Z,7204.00
2023-05-16T12:10:15.826Z,8216.00
2023-05-16T12:11:15.811Z,9336.00
2023-05-16T12:12:15.780Z,9960.00
2023-05-16T12:13:15.773Z,10656.00
2023-05-16T12:14:15.769Z,10824.00
2023-05-16T12:15:15.758Z,10524.00
2023-05-16T12:16:15.774Z,10244.00
2023-05-16T12:17:15.744Z,9228.00
2023-05-16T12:18:15.791Z,9324.00
2023-05-16T12:19:15.791Z,9232.00
2023-05-16T12:20:15.735Z,8576.00
2023-05-16T12:21:15.730Z,8044.00
2023-05-16T12:22:15.726Z,7848.00
2023-05-16T12:23:15.726Z,7896.00
2023-05-16T12:24:15.730Z,7664.00
2023-05-16T12:25:15.709Z,7360.00
2023-05-16T12:26:15.708Z,7268.00
2023-05-16T12:27:15.786Z,7364.00
2023-05-16T12:28:15.695Z,6944.00
2023-05-16T12:29:15.686Z,6668.00
2023-05-16T12:30:15.732Z,6588.00
2023-05-16T12:31:29.321Z,6552.00
2023-05-16T12:32:15.696Z,7356.00
2023-05-16T12:33:15.724Z,7652.00
2023-05-16T12:34:15.772Z,7296.00
2023-05-16T12:35:15.660Z,7212.00
2023-05-16T12:36:15.662Z,8172.00
2023-05-16T12:37:15.657Z,8720.00
2023-05-16T12:38:15.641Z,8688.00
2023-05-16T12:39:15.667Z,9064.00
2023-05-16T12:40:15.635Z,9192.00
2023-05-16T12:41:15.627Z,9228.00
2023-05-16T12:42:15.625Z,8892.00
2023-05-16T12:43:15.612Z,8344.00